sensor_id;sensor_type;location;lat;lon;timestamp;temperature;humidity
46137;DHT22;31871;49.418;8.752;2022-07-25T00:01:35;24.40;91.30
46137;DHT22;31871;49.418;8.752;2022-07-25T00:04:00;24.30;91.70
46137;DHT22;31871;49.418;8.752;2022-07-25T00:06:26;24.30;91.50
46137;DHT22;31871;49.418;8.752;2022-07-25T00:08:51;24.20;91.80
46137;DHT22;31871;49.418;8.752;2022-07-25T00:11:17;24.20;92.00
46137;DHT22;31871;49.418;8.752;2022-07-25T00:13:42;24.10;92.40
46137;DHT22;31871;49.418;8.752;2022-07-25T00:16:08;24.10;92.20
46137;DHT22;31871;49.418;8.752;2022-07-25T00:18:34;24.10;92.20
46137;DHT22;31871;49.418;8.752;2022-07-25T00:20:59;24.10;92.20
46137;DHT22;31871;49.418;8.752;2022-07-25T00:23:25;24.00;92.30
46137;DHT22;31871;49.418;8.752;2022-07-25T00:25:50;24.00;92.20
46137;DHT22;31871;49.418;8.752;2022-07-25T00:28:16;24.00;92.30
46137;DHT22;31871;49.418;8.752;2022-07-25T00:30:42;23.90;92.30
46137;DHT22;31871;49.418;8.752;2022-07-25T00:33:08;23.80;92.40
46137;DHT22;31871;49.418;8.752;2022-07-25T00:35:34;23.80;92.50
46137;DHT22;31871;49.418;8.752;2022-07-25T00:37:59;23.80;92.50
46137;DHT22;31871;49.418;8.752;2022-07-25T00:40:25;23.80;92.50
46137;DHT22;31871;49.418;8.752;2022-07-25T00:42:51;23.80;92.70
46137;DHT22;31871;49.418;8.752;2022-07-25T00:45:16;23.70;92.80
46137;DHT22;31871;49.418;8.752;2022-07-25T00:47:42;23.70;93.20
46137;DHT22;31871;49.418;8.752;2022-07-25T00:50:08;23.70;93.40
46137;DHT22;31871;49.418;8.752;2022-07-25T00:52:34;23.70;93.40
46137;DHT22;31871;49.418;8.752;2022-07-25T00:55:00;23.70;93.40
46137;DHT22;31871;49.418;8.752;2022-07-25T00:57:25;23.60;93.40
46137;DHT22;31871;49.418;8.752;2022-07-25T00:59:51;23.60;93.00
46137;DHT22;31871;49.418;8.752;2022-07-25T01:02:16;23.60;93.10
46137;DHT22;31871;49.418;8.752;2022-07-25T01:04:42;23.50;93.00
46137;DHT22;31871;49.418;8.752;2022-07-25T01:07:08;23.40;93.30
46137;DHT22;31871;49.418;8.752;2022-07-25T01:09:34;23.40;93.20
46137;DHT22;31871;49.418;8.752;2022-07-25T01:12:00;23.40;93.20
46137;DHT22;31871;49.418;8.752;2022-07-25T01:14:25;23.40;93.40
46137;DHT22;31871;49.418;8.752;2022-07-25T01:16:51;23.50;93.40
46137;DHT22;31871;49.418;8.752;2022-07-25T01:19:16;23.50;93.20
46137;DHT22;31871;49.418;8.752;2022-07-25T01:21:42;23.50;93.20
46137;DHT22;31871;49.418;8.752;2022-07-25T01:24:08;23.50;93.20
46137;DHT22;31871;49.418;8.752;2022-07-25T01:26:34;23.50;93.20
46137;DHT22;31871;49.418;8.752;2022-07-25T01:29:00;23.50;93.30
46137;DHT22;31871;49.418;8.752;2022-07-25T01:31:26;23.60;93.40
46137;DHT22;31871;49.418;8.752;2022-07-25T01:33:51;23.50;93.40
46137;DHT22;31871;49.418;8.752;2022-07-25T01:36:17;23.40;93.60
46137;DHT22;31871;49.418;8.752;2022-07-25T01:38:42;23.40;93.80
46137;DHT22;31871;49.418;8.752;2022-07-25T01:41:08;23.40;93.90
46137;DHT22;31871;49.418;8.752;2022-07-25T01:43:33;23.50;93.70
46137;DHT22;31871;49.418;8.752;2022-07-25T01:45:59;23.50;93.70
46137;DHT22;31871;49.418;8.752;2022-07-25T01:48:25;23.40;93.90
46137;DHT22;31871;49.418;8.752;2022-07-25T01:50:50;23.30;94.00
46137;DHT22;31871;49.418;8.752;2022-07-25T01:53:16;23.30;94.00
46137;DHT22;31871;49.418;8.752;2022-07-25T01:55:44;23.30;94.10
46137;DHT22;31871;49.418;8.752;2022-07-25T01:58:10;23.10;94.70
46137;DHT22;31871;49.418;8.752;2022-07-25T02:00:35;23.10;94.90
46137;DHT22;31871;49.418;8.752;2022-07-25T02:03:01;23.10;94.80
46137;DHT22;31871;49.418;8.752;2022-07-25T02:05:46;23.10;94.80
46137;DHT22;31871;49.418;8.752;2022-07-25T02:08:11;23.00;94.80
46137;DHT22;31871;49.418;8.752;2022-07-25T02:10:37;22.90;94.60
46137;DHT22;31871;49.418;8.752;2022-07-25T02:13:03;22.90;94.70
46137;DHT22;31871;49.418;8.752;2022-07-25T02:15:28;22.90;94.80
46137;DHT22;31871;49.418;8.752;2022-07-25T02:17:54;22.80;94.90
46137;DHT22;31871;49.418;8.752;2022-07-25T02:20:19;22.80;95.00
46137;DHT22;31871;49.418;8.752;2022-07-25T02:22:45;22.70;95.20
46137;DHT22;31871;49.418;8.752;2022-07-25T02:25:10;22.70;95.50
46137;DHT22;31871;49.418;8.752;2022-07-25T02:27:36;22.70;95.60
46137;DHT22;31871;49.418;8.752;2022-07-25T02:30:03;22.80;95.50
46137;DHT22;31871;49.418;8.752;2022-07-25T02:32:29;22.80;95.30
46137;DHT22;31871;49.418;8.752;2022-07-25T02:34:55;22.80;95.30
46137;DHT22;31871;49.418;8.752;2022-07-25T02:37:22;22.80;95.50
46137;DHT22;31871;49.418;8.752;2022-07-25T02:39:48;22.80;95.60
46137;DHT22;31871;49.418;8.752;2022-07-25T02:42:14;22.80;95.50
46137;DHT22;31871;49.418;8.752;2022-07-25T02:44:40;22.80;95.70
46137;DHT22;31871;49.418;8.752;2022-07-25T02:47:05;22.80;96.00
46137;DHT22;31871;49.418;8.752;2022-07-25T02:49:31;22.80;95.90
46137;DHT22;31871;49.418;8.752;2022-07-25T02:51:57;22.80;95.80
46137;DHT22;31871;49.418;8.752;2022-07-25T02:54:22;22.70;95.90
46137;DHT22;31871;49.418;8.752;2022-07-25T02:56:48;22.60;96.00
46137;DHT22;31871;49.418;8.752;2022-07-25T02:59:14;22.60;96.60
46137;DHT22;31871;49.418;8.752;2022-07-25T03:01:39;22.50;96.30
46137;DHT22;31871;49.418;8.752;2022-07-25T03:04:05;22.40;96.50
46137;DHT22;31871;49.418;8.752;2022-07-25T03:06:31;22.30;96.60
46137;DHT22;31871;49.418;8.752;2022-07-25T03:08:56;22.30;96.80
46137;DHT22;31871;49.418;8.752;2022-07-25T03:11:22;22.20;97.20
46137;DHT22;31871;49.418;8.752;2022-07-25T03:13:47;22.10;97.30
46137;DHT22;31871;49.418;8.752;2022-07-25T03:16:13;22.20;97.40
46137;DHT22;31871;49.418;8.752;2022-07-25T03:18:38;22.20;97.60
46137;DHT22;31871;49.418;8.752;2022-07-25T03:21:04;22.10;97.80
46137;DHT22;31871;49.418;8.752;2022-07-25T03:23:31;22.00;99.10
46137;DHT22;31871;49.418;8.752;2022-07-25T03:25:57;21.90;98.80
46137;DHT22;31871;49.418;8.752;2022-07-25T03:28:23;22.00;98.50
46137;DHT22;31871;49.418;8.752;2022-07-25T03:30:49;22.00;98.30
46137;DHT22;31871;49.418;8.752;2022-07-25T03:33:14;22.00;98.20
46137;DHT22;31871;49.418;8.752;2022-07-25T03:35:40;22.00;98.20
46137;DHT22;31871;49.418;8.752;2022-07-25T03:38:06;22.00;98.20
46137;DHT22;31871;49.418;8.752;2022-07-25T03:40:32;22.00;98.30
46137;DHT22;31871;49.418;8.752;2022-07-25T03:42:57;22.00;98.40
46137;DHT22;31871;49.418;8.752;2022-07-25T03:45:23;22.00;99.20
46137;DHT22;31871;49.418;8.752;2022-07-25T03:47:48;21.80;99.90
46137;DHT22;31871;49.418;8.752;2022-07-25T03:50:14;21.70;99.90
46137;DHT22;31871;49.418;8.752;2022-07-25T03:52:40;21.60;99.90
46137;DHT22;31871;49.418;8.752;2022-07-25T03:55:07;21.50;99.90
46137;DHT22;31871;49.418;8.752;2022-07-25T03:57:33;21.50;99.90
46137;DHT22;31871;49.418;8.752;2022-07-25T03:59:58;21.60;99.90
46137;DHT22;31871;49.418;8.752;2022-07-25T04:02:24;21.70;99.90
46137;DHT22;31871;49.418;8.752;2022-07-25T04:04:50;21.80;99.90
46137;DHT22;31871;49.418;8.752;2022-07-25T04:07:16;21.90;99.90
46137;DHT22;31871;49.418;8.752;2022-07-25T04:09:41;21.90;99.90
46137;DHT22;31871;49.418;8.752;2022-07-25T04:12:07;21.90;99.90
46137;DHT22;31871;49.418;8.752;2022-07-25T04:14:32;21.90;99.90
46137;DHT22;31871;49.418;8.752;2022-07-25T04:16:58;21.90;99.90
46137;DHT22;31871;49.418;8.752;2022-07-25T04:19:24;21.90;99.90
46137;DHT22;31871;49.418;8.752;2022-07-25T04:21:50;21.90;99.90
46137;DHT22;31871;49.418;8.752;2022-07-25T04:24:15;21.80;99.90
46137;DHT22;31871;49.418;8.752;2022-07-25T04:26:41;21.80;99.90
46137;DHT22;31871;49.418;8.752;2022-07-25T04:29:06;21.70;99.90
46137;DHT22;31871;49.418;8.752;2022-07-25T04:31:32;21.70;99.90
46137;DHT22;31871;49.418;8.752;2022-07-25T04:33:58;21.80;99.90
46137;DHT22;31871;49.418;8.752;2022-07-25T04:36:24;21.70;99.90
46137;DHT22;31871;49.418;8.752;2022-07-25T04:38:51;21.70;99.90
46137;DHT22;31871;49.418;8.752;2022-07-25T04:41:17;21.60;99.90
46137;DHT22;31871;49.418;8.752;2022-07-25T04:43:42;21.50;99.90
46137;DHT22;31871;49.418;8.752;2022-07-25T04:46:08;21.50;99.90
46137;DHT22;31871;49.418;8.752;2022-07-25T04:48:33;21.50;99.90
46137;DHT22;31871;49.418;8.752;2022-07-25T04:50:59;21.40;99.90
46137;DHT22;31871;49.418;8.752;2022-07-25T04:53:25;21.40;99.90
46137;DHT22;31871;49.418;8.752;2022-07-25T04:55:51;21.40;99.90
46137;DHT22;31871;49.418;8.752;2022-07-25T04:58:16;21.40;99.90
46137;DHT22;31871;49.418;8.752;2022-07-25T05:00:42;21.50;99.90
46137;DHT22;31871;49.418;8.752;2022-07-25T05:03:08;21.50;99.90
46137;DHT22;31871;49.418;8.752;2022-07-25T05:05:33;21.40;99.90
46137;DHT22;31871;49.418;8.752;2022-07-25T05:07:59;21.40;99.90
46137;DHT22;31871;49.418;8.752;2022-07-25T05:10:26;21.40;99.90
46137;DHT22;31871;49.418;8.752;2022-07-25T05:12:52;21.40;99.90
46137;DHT22;31871;49.418;8.752;2022-07-25T05:15:18;21.40;99.90
46137;DHT22;31871;49.418;8.752;2022-07-25T05:17:44;21.40;99.90
46137;DHT22;31871;49.418;8.752;2022-07-25T05:20:11;21.40;99.90
46137;DHT22;31871;49.418;8.752;2022-07-25T05:22:36;21.40;99.90
46137;DHT22;31871;49.418;8.752;2022-07-25T05:25:05;21.40;99.90
46137;DHT22;31871;49.418;8.752;2022-07-25T05:27:31;21.40;99.90
46137;DHT22;31871;49.418;8.752;2022-07-25T05:29:57;21.50;99.90
46137;DHT22;31871;49.418;8.752;2022-07-25T05:32:23;21.50;99.90
46137;DHT22;31871;49.418;8.752;2022-07-25T05:34:48;21.50;99.90
46137;DHT22;31871;49.418;8.752;2022-07-25T05:37:14;21.60;99.90
46137;DHT22;31871;49.418;8.752;2022-07-25T05:39:40;21.60;99.90
46137;DHT22;31871;49.418;8.752;2022-07-25T05:42:06;21.70;99.90
46137;DHT22;31871;49.418;8.752;2022-07-25T05:44:32;21.70;99.90
46137;DHT22;31871;49.418;8.752;2022-07-25T05:46:58;21.70;99.90
46137;DHT22;31871;49.418;8.752;2022-07-25T05:49:23;21.80;99.90
46137;DHT22;31871;49.418;8.752;2022-07-25T05:51:49;21.80;99.90
46137;DHT22;31871;49.418;8.752;2022-07-25T05:54:15;21.80;99.90
46137;DHT22;31871;49.418;8.752;2022-07-25T05:56:41;21.80;99.90
46137;DHT22;31871;49.418;8.752;2022-07-25T05:59:06;21.90;99.90
46137;DHT22;31871;49.418;8.752;2022-07-25T06:01:32;21.90;99.90
46137;DHT22;31871;49.418;8.752;2022-07-25T06:03:57;22.00;99.90
46137;DHT22;31871;49.418;8.752;2022-07-25T06:06:23;22.10;99.90
46137;DHT22;31871;49.418;8.752;2022-07-25T06:08:49;22.20;99.90
46137;DHT22;31871;49.418;8.752;2022-07-25T06:11:15;22.20;99.90
46137;DHT22;31871;49.418;8.752;2022-07-25T06:13:41;22.30;99.90
46137;DHT22;31871;49.418;8.752;2022-07-25T06:16:07;22.30;99.90
46137;DHT22;31871;49.418;8.752;2022-07-25T06:18:33;22.40;99.90
46137;DHT22;31871;49.418;8.752;2022-07-25T06:20:58;22.40;99.90
46137;DHT22;31871;49.418;8.752;2022-07-25T06:23:24;22.50;99.90
46137;DHT22;31871;49.418;8.752;2022-07-25T06:25:50;22.50;99.90
46137;DHT22;31871;49.418;8.752;2022-07-25T06:28:16;22.60;99.90
46137;DHT22;31871;49.418;8.752;2022-07-25T06:30:42;22.70;99.90
46137;DHT22;31871;49.418;8.752;2022-07-25T06:33:08;22.70;99.90
46137;DHT22;31871;49.418;8.752;2022-07-25T06:35:34;22.80;99.90
46137;DHT22;31871;49.418;8.752;2022-07-25T06:38:00;22.90;99.90
46137;DHT22;31871;49.418;8.752;2022-07-25T06:40:25;23.00;99.90
46137;DHT22;31871;49.418;8.752;2022-07-25T06:42:51;23.00;99.90
46137;DHT22;31871;49.418;8.752;2022-07-25T06:45:17;23.10;99.90
46137;DHT22;31871;49.418;8.752;2022-07-25T06:47:43;23.20;99.90
46137;DHT22;31871;49.418;8.752;2022-07-25T06:50:11;23.30;99.90
46137;DHT22;31871;49.418;8.752;2022-07-25T06:52:37;23.30;99.90
46137;DHT22;31871;49.418;8.752;2022-07-25T06:55:04;23.30;99.90
46137;DHT22;31871;49.418;8.752;2022-07-25T06:57:30;23.40;99.90
46137;DHT22;31871;49.418;8.752;2022-07-25T06:59:56;23.60;99.90
46137;DHT22;31871;49.418;8.752;2022-07-25T07:02:21;23.70;99.90
46137;DHT22;31871;49.418;8.752;2022-07-25T07:04:47;23.70;99.90
46137;DHT22;31871;49.418;8.752;2022-07-25T07:07:13;23.80;99.90
46137;DHT22;31871;49.418;8.752;2022-07-25T07:09:40;23.90;99.90
46137;DHT22;31871;49.418;8.752;2022-07-25T07:12:06;24.10;99.90
46137;DHT22;31871;49.418;8.752;2022-07-25T07:14:32;24.10;99.90
46137;DHT22;31871;49.418;8.752;2022-07-25T07:16:58;24.30;99.90
46137;DHT22;31871;49.418;8.752;2022-07-25T07:19:24;24.40;99.90
46137;DHT22;31871;49.418;8.752;2022-07-25T07:21:49;24.50;99.90
46137;DHT22;31871;49.418;8.752;2022-07-25T07:24:16;24.60;99.50
46137;DHT22;31871;49.418;8.752;2022-07-25T07:26:42;24.70;99.00
46137;DHT22;31871;49.418;8.752;2022-07-25T07:29:08;24.90;98.70
46137;DHT22;31871;49.418;8.752;2022-07-25T07:31:33;25.00;98.50
46137;DHT22;31871;49.418;8.752;2022-07-25T07:33:59;25.10;98.40
46137;DHT22;31871;49.418;8.752;2022-07-25T07:36:25;25.30;98.50
46137;DHT22;31871;49.418;8.752;2022-07-25T07:38:50;25.40;98.00
46137;DHT22;31871;49.418;8.752;2022-07-25T07:41:17;25.50;97.80
46137;DHT22;31871;49.418;8.752;2022-07-25T07:43:43;25.60;97.70
46137;DHT22;31871;49.418;8.752;2022-07-25T07:46:09;25.70;97.60
46137;DHT22;31871;49.418;8.752;2022-07-25T07:48:34;25.80;97.30
46137;DHT22;31871;49.418;8.752;2022-07-25T07:51:01;26.00;97.00
46137;DHT22;31871;49.418;8.752;2022-07-25T07:53:26;26.00;96.70
46137;DHT22;31871;49.418;8.752;2022-07-25T07:56:11;26.10;96.80
46137;DHT22;31871;49.418;8.752;2022-07-25T07:58:36;26.20;97.10
46137;DHT22;31871;49.418;8.752;2022-07-25T08:01:02;26.20;96.60
46137;DHT22;31871;49.418;8.752;2022-07-25T08:03:28;26.30;96.20
46137;DHT22;31871;49.418;8.752;2022-07-25T08:05:54;26.40;96.30
46137;DHT22;31871;49.418;8.752;2022-07-25T08:08:19;26.40;96.30
46137;DHT22;31871;49.418;8.752;2022-07-25T08:10:47;26.60;95.80
46137;DHT22;31871;49.418;8.752;2022-07-25T08:13:21;26.70;95.60
46137;DHT22;31871;49.418;8.752;2022-07-25T08:15:49;26.80;95.50
46137;DHT22;31871;49.418;8.752;2022-07-25T08:18:15;26.90;95.00
46137;DHT22;31871;49.418;8.752;2022-07-25T08:20:41;27.00;95.00
46137;DHT22;31871;49.418;8.752;2022-07-25T08:23:07;27.00;95.00
46137;DHT22;31871;49.418;8.752;2022-07-25T08:25:37;27.20;94.90
46137;DHT22;31871;49.418;8.752;2022-07-25T08:28:04;27.20;95.50
46137;DHT22;31871;49.418;8.752;2022-07-25T08:30:31;27.30;94.40
46137;DHT22;31871;49.418;8.752;2022-07-25T08:32:59;27.40;94.30
46137;DHT22;31871;49.418;8.752;2022-07-25T08:35:26;27.50;93.90
46137;DHT22;31871;49.418;8.752;2022-07-25T08:37:52;27.60;93.80
46137;DHT22;31871;49.418;8.752;2022-07-25T08:40:20;27.70;93.50
46137;DHT22;31871;49.418;8.752;2022-07-25T08:42:47;27.80;93.00
46137;DHT22;31871;49.418;8.752;2022-07-25T08:45:14;28.00;92.60
46137;DHT22;31871;49.418;8.752;2022-07-25T08:47:42;28.20;92.50
46137;DHT22;31871;49.418;8.752;2022-07-25T08:50:13;28.20;92.00
46137;DHT22;31871;49.418;8.752;2022-07-25T08:52:41;28.40;92.30
46137;DHT22;31871;49.418;8.752;2022-07-25T08:55:09;28.40;91.70
46137;DHT22;31871;49.418;8.752;2022-07-25T08:57:36;28.50;91.70
46137;DHT22;31871;49.418;8.752;2022-07-25T09:00:06;28.50;91.40
46137;DHT22;31871;49.418;8.752;2022-07-25T09:02:32;28.60;91.50
46137;DHT22;31871;49.418;8.752;2022-07-25T09:04:58;28.70;90.80
46137;DHT22;31871;49.418;8.752;2022-07-25T09:07:35;28.80;90.80
46137;DHT22;31871;49.418;8.752;2022-07-25T09:10:18;28.90;90.60
46137;DHT22;31871;49.418;8.752;2022-07-25T09:13:09;29.00;89.80
46137;DHT22;31871;49.418;8.752;2022-07-25T09:15:46;29.10;89.10
46137;DHT22;31871;49.418;8.752;2022-07-25T09:18:14;29.20;88.40
46137;DHT22;31871;49.418;8.752;2022-07-25T09:20:45;29.30;87.60
46137;DHT22;31871;49.418;8.752;2022-07-25T09:23:13;29.40;87.10
46137;DHT22;31871;49.418;8.752;2022-07-25T09:25:40;29.60;86.40
46137;DHT22;31871;49.418;8.752;2022-07-25T09:28:14;29.60;84.00
46137;DHT22;31871;49.418;8.752;2022-07-25T09:30:51;29.70;84.70
46137;DHT22;31871;49.418;8.752;2022-07-25T09:33:19;29.90;83.30
46137;DHT22;31871;49.418;8.752;2022-07-25T09:35:45;30.20;81.50
46137;DHT22;31871;49.418;8.752;2022-07-25T09:38:13;30.10;82.20
46137;DHT22;31871;49.418;8.752;2022-07-25T09:40:39;30.40;80.80
46137;DHT22;31871;49.418;8.752;2022-07-25T09:43:05;30.70;78.80
46137;DHT22;31871;49.418;8.752;2022-07-25T09:45:31;30.80;77.80
46137;DHT22;31871;49.418;8.752;2022-07-25T09:48:03;31.20;75.20
46137;DHT22;31871;49.418;8.752;2022-07-25T09:50:30;31.10;74.00
46137;DHT22;31871;49.418;8.752;2022-07-25T09:52:58;31.00;75.50
46137;DHT22;31871;49.418;8.752;2022-07-25T09:55:25;31.20;74.80
46137;DHT22;31871;49.418;8.752;2022-07-25T09:57:51;31.30;74.20
46137;DHT22;31871;49.418;8.752;2022-07-25T10:00:25;31.50;71.90
46137;DHT22;31871;49.418;8.752;2022-07-25T10:03:10;31.40;71.80
46137;DHT22;31871;49.418;8.752;2022-07-25T10:05:57;31.40;71.70
46137;DHT22;31871;49.418;8.752;2022-07-25T10:08:26;31.50;71.50
46137;DHT22;31871;49.418;8.752;2022-07-25T10:10:53;31.30;70.00
46137;DHT22;31871;49.418;8.752;2022-07-25T10:13:30;31.10;70.20
46137;DHT22;31871;49.418;8.752;2022-07-25T10:15:56;31.10;70.50
46137;DHT22;31871;49.418;8.752;2022-07-25T10:18:23;31.10;70.90
46137;DHT22;31871;49.418;8.752;2022-07-25T10:20:52;31.40;69.30
46137;DHT22;31871;49.418;8.752;2022-07-25T10:23:26;31.50;69.30
46137;DHT22;31871;49.418;8.752;2022-07-25T10:26:10;31.80;69.70
46137;DHT22;31871;49.418;8.752;2022-07-25T10:28:43;32.00;67.90
46137;DHT22;31871;49.418;8.752;2022-07-25T10:31:19;32.30;67.10
46137;DHT22;31871;49.418;8.752;2022-07-25T10:33:50;32.40;64.70
46137;DHT22;31871;49.418;8.752;2022-07-25T10:36:17;32.50;63.80
46137;DHT22;31871;49.418;8.752;2022-07-25T10:38:45;32.40;65.40
46137;DHT22;31871;49.418;8.752;2022-07-25T10:41:12;32.60;64.30
46137;DHT22;31871;49.418;8.752;2022-07-25T10:43:38;32.40;64.50
46137;DHT22;31871;49.418;8.752;2022-07-25T10:46:17;32.20;63.10
46137;DHT22;31871;49.418;8.752;2022-07-25T10:48:43;32.10;65.40
46137;DHT22;31871;49.418;8.752;2022-07-25T10:51:11;32.30;63.90
46137;DHT22;31871;49.418;8.752;2022-07-25T10:53:46;32.60;63.30
46137;DHT22;31871;49.418;8.752;2022-07-25T10:56:14;32.90;62.80
46137;DHT22;31871;49.418;8.752;2022-07-25T10:58:44;33.10;61.10
46137;DHT22;31871;49.418;8.752;2022-07-25T11:01:11;33.00;62.20
46137;DHT22;31871;49.418;8.752;2022-07-25T11:03:40;33.00;63.30
46137;DHT22;31871;49.418;8.752;2022-07-25T11:06:06;32.70;59.90
46137;DHT22;31871;49.418;8.752;2022-07-25T11:08:32;32.90;58.00
46137;DHT22;31871;49.418;8.752;2022-07-25T11:10:59;33.20;58.10
46137;DHT22;31871;49.418;8.752;2022-07-25T11:13:24;33.40;56.60
46137;DHT22;31871;49.418;8.752;2022-07-25T11:15:50;33.70;56.80
46137;DHT22;31871;49.418;8.752;2022-07-25T11:18:33;33.70;56.30
46137;DHT22;31871;49.418;8.752;2022-07-25T11:21:00;33.70;54.60
46137;DHT22;31871;49.418;8.752;2022-07-25T11:23:26;33.90;53.00
46137;DHT22;31871;49.418;8.752;2022-07-25T11:25:57;33.70;53.80
46137;DHT22;31871;49.418;8.752;2022-07-25T11:28:47;33.70;53.60
46137;DHT22;31871;49.418;8.752;2022-07-25T11:31:14;33.10;54.10
46137;DHT22;31871;49.418;8.752;2022-07-25T11:33:42;33.00;53.80
46137;DHT22;31871;49.418;8.752;2022-07-25T11:36:09;32.80;53.80
46137;DHT22;31871;49.418;8.752;2022-07-25T11:38:36;32.70;54.80
46137;DHT22;31871;49.418;8.752;2022-07-25T11:41:03;32.60;55.80
46137;DHT22;31871;49.418;8.752;2022-07-25T11:43:28;32.30;54.30
46137;DHT22;31871;49.418;8.752;2022-07-25T11:48:33;32.20;56.50
46137;DHT22;31871;49.418;8.752;2022-07-25T11:51:11;32.10;57.00
46137;DHT22;31871;49.418;8.752;2022-07-25T11:53:42;32.10;57.90
46137;DHT22;31871;49.418;8.752;2022-07-25T11:56:18;32.30;58.30
46137;DHT22;31871;49.418;8.752;2022-07-25T11:58:58;32.50;58.20
46137;DHT22;31871;49.418;8.752;2022-07-25T12:01:32;32.60;57.40
46137;DHT22;31871;49.418;8.752;2022-07-25T12:04:10;32.70;56.70
46137;DHT22;31871;49.418;8.752;2022-07-25T12:06:37;32.80;57.00
46137;DHT22;31871;49.418;8.752;2022-07-25T12:09:15;33.00;56.60
46137;DHT22;31871;49.418;8.752;2022-07-25T12:11:41;33.20;56.20
46137;DHT22;31871;49.418;8.752;2022-07-25T12:14:07;33.00;58.20
46137;DHT22;31871;49.418;8.752;2022-07-25T12:16:33;32.80;57.10
46137;DHT22;31871;49.418;8.752;2022-07-25T12:18:59;32.70;58.80
46137;DHT22;31871;49.418;8.752;2022-07-25T12:21:26;33.00;58.00
46137;DHT22;31871;49.418;8.752;2022-07-25T12:23:52;33.20;58.30
46137;DHT22;31871;49.418;8.752;2022-07-25T12:26:18;33.50;58.10
46137;DHT22;31871;49.418;8.752;2022-07-25T12:28:44;33.70;55.70
46137;DHT22;31871;49.418;8.752;2022-07-25T12:31:10;33.70;56.50
46137;DHT22;31871;49.418;8.752;2022-07-25T12:33:35;33.80;55.40
46137;DHT22;31871;49.418;8.752;2022-07-25T12:36:01;34.00;54.90
46137;DHT22;31871;49.418;8.752;2022-07-25T12:38:27;33.90;55.60
46137;DHT22;31871;49.418;8.752;2022-07-25T12:40:53;34.20;55.00
46137;DHT22;31871;49.418;8.752;2022-07-25T12:43:19;34.40;55.70
46137;DHT22;31871;49.418;8.752;2022-07-25T12:45:45;34.70;54.80
46137;DHT22;31871;49.418;8.752;2022-07-25T12:48:12;34.80;54.20
46137;DHT22;31871;49.418;8.752;2022-07-25T12:50:39;34.60;55.60
46137;DHT22;31871;49.418;8.752;2022-07-25T12:53:05;34.40;55.30
46137;DHT22;31871;49.418;8.752;2022-07-25T12:55:31;34.60;54.80
46137;DHT22;31871;49.418;8.752;2022-07-25T12:57:56;34.60;55.70
46137;DHT22;31871;49.418;8.752;2022-07-25T13:00:22;34.40;57.10
46137;DHT22;31871;49.418;8.752;2022-07-25T13:02:50;34.60;55.70
46137;DHT22;31871;49.418;8.752;2022-07-25T13:05:16;34.80;54.50
46137;DHT22;31871;49.418;8.752;2022-07-25T13:07:42;34.80;55.10
46137;DHT22;31871;49.418;8.752;2022-07-25T13:10:08;34.80;54.90
46137;DHT22;31871;49.418;8.752;2022-07-25T13:12:34;34.90;54.20
46137;DHT22;31871;49.418;8.752;2022-07-25T13:14:59;34.10;56.30
46137;DHT22;31871;49.418;8.752;2022-07-25T13:17:26;33.90;58.40
46137;DHT22;31871;49.418;8.752;2022-07-25T13:19:52;34.00;58.10
46137;DHT22;31871;49.418;8.752;2022-07-25T13:22:18;34.10;56.40
46137;DHT22;31871;49.418;8.752;2022-07-25T13:24:43;34.20;56.90
46137;DHT22;31871;49.418;8.752;2022-07-25T13:27:09;34.30;55.80
46137;DHT22;31871;49.418;8.752;2022-07-25T13:29:35;34.40;55.90
46137;DHT22;31871;49.418;8.752;2022-07-25T13:32:01;34.20;55.60
46137;DHT22;31871;49.418;8.752;2022-07-25T13:34:27;33.80;56.50
46137;DHT22;31871;49.418;8.752;2022-07-25T13:36:52;33.60;57.20
46137;DHT22;31871;49.418;8.752;2022-07-25T13:39:18;33.30;57.70
46137;DHT22;31871;49.418;8.752;2022-07-25T13:41:47;33.00;58.10
46137;DHT22;31871;49.418;8.752;2022-07-25T13:44:13;33.00;57.30
46137;DHT22;31871;49.418;8.752;2022-07-25T13:46:40;33.10;59.00
46137;DHT22;31871;49.418;8.752;2022-07-25T13:49:06;33.00;57.50
46137;DHT22;31871;49.418;8.752;2022-07-25T13:51:31;32.90;58.70
46137;DHT22;31871;49.418;8.752;2022-07-25T13:53:57;33.00;58.50
46137;DHT22;31871;49.418;8.752;2022-07-25T13:56:23;33.20;58.00
46137;DHT22;31871;49.418;8.752;2022-07-25T13:58:48;33.40;57.60
46137;DHT22;31871;49.418;8.752;2022-07-25T14:01:14;33.30;58.90
46137;DHT22;31871;49.418;8.752;2022-07-25T14:03:40;33.40;58.50
46137;DHT22;31871;49.418;8.752;2022-07-25T14:06:09;33.30;56.90
46137;DHT22;31871;49.418;8.752;2022-07-25T14:08:39;33.10;58.20
46137;DHT22;31871;49.418;8.752;2022-07-25T14:11:06;32.80;60.20
46137;DHT22;31871;49.418;8.752;2022-07-25T14:13:33;32.80;60.00
46137;DHT22;31871;49.418;8.752;2022-07-25T14:15:58;32.90;59.60
46137;DHT22;31871;49.418;8.752;2022-07-25T14:18:24;32.90;61.00
46137;DHT22;31871;49.418;8.752;2022-07-25T14:20:49;32.80;62.80
46137;DHT22;31871;49.418;8.752;2022-07-25T14:23:15;32.80;66.40
46137;DHT22;31871;49.418;8.752;2022-07-25T14:25:41;32.80;62.00
46137;DHT22;31871;49.418;8.752;2022-07-25T14:28:07;32.70;61.40
46137;DHT22;31871;49.418;8.752;2022-07-25T14:30:33;32.60;61.50
46137;DHT22;31871;49.418;8.752;2022-07-25T14:32:59;32.60;61.50
46137;DHT22;31871;49.418;8.752;2022-07-25T14:35:24;32.60;61.40
46137;DHT22;31871;49.418;8.752;2022-07-25T14:37:50;32.60;62.20
46137;DHT22;31871;49.418;8.752;2022-07-25T14:40:16;32.60;62.30
46137;DHT22;31871;49.418;8.752;2022-07-25T14:42:42;32.70;62.60
46137;DHT22;31871;49.418;8.752;2022-07-25T14:45:09;32.60;65.10
46137;DHT22;31871;49.418;8.752;2022-07-25T14:47:35;32.40;65.20
46137;DHT22;31871;49.418;8.752;2022-07-25T14:50:01;32.30;63.00
46137;DHT22;31871;49.418;8.752;2022-07-25T14:52:27;32.20;65.50
46137;DHT22;31871;49.418;8.752;2022-07-25T14:54:53;32.10;64.90
46137;DHT22;31871;49.418;8.752;2022-07-25T14:57:19;32.10;64.40
46137;DHT22;31871;49.418;8.752;2022-07-25T14:59:44;32.30;65.30
46137;DHT22;31871;49.418;8.752;2022-07-25T15:02:10;32.30;63.90
46137;DHT22;31871;49.418;8.752;2022-07-25T15:04:36;32.10;64.00
46137;DHT22;31871;49.418;8.752;2022-07-25T15:07:02;32.10;63.30
46137;DHT22;31871;49.418;8.752;2022-07-25T15:09:27;32.10;63.30
46137;DHT22;31871;49.418;8.752;2022-07-25T15:11:53;31.90;64.20
46137;DHT22;31871;49.418;8.752;2022-07-25T15:14:19;31.80;63.20
46137;DHT22;31871;49.418;8.752;2022-07-25T15:16:44;31.70;63.50
46137;DHT22;31871;49.418;8.752;2022-07-25T15:19:10;31.70;64.00
46137;DHT22;31871;49.418;8.752;2022-07-25T15:21:36;31.80;63.30
46137;DHT22;31871;49.418;8.752;2022-07-25T15:24:02;31.70;64.50
46137;DHT22;31871;49.418;8.752;2022-07-25T15:26:28;31.60;64.60
46137;DHT22;31871;49.418;8.752;2022-07-25T15:28:54;31.70;63.80
46137;DHT22;31871;49.418;8.752;2022-07-25T15:31:19;31.70;64.10